createdAt,value
2023-04-01T00:01:28.161Z,1.25
2023-04-01T00:03:55.475Z,0.88
2023-04-01T00:06:22.626Z,0.73
2023-04-01T00:08:49.494Z,0.95
2023-04-01T00:11:17.239Z,1.15
2023-04-01T00:13:44.457Z,0.77
2023-04-01T00:16:20.883Z,0.80
2023-04-01T00:18:50.827Z,0.90
2023-04-01T00:21:18.611Z,0.98
2023-04-01T00:23:45.525Z,1.00
2023-04-01T00:26:13.065Z,0.82
2023-04-01T00:28:40.179Z,0.70
2023-04-01T00:31:09.327Z,0.60
2023-04-01T00:33:36.576Z,0.75
2023-04-01T00:36:13.891Z,0.70
2023-04-01T00:38:42.527Z,0.90
2023-04-01T00:41:15.014Z,0.85
2023-04-01T00:43:44.519Z,0.85
2023-04-01T00:46:11.360Z,1.02
2023-04-01T00:48:43.424Z,1.13
2023-04-01T00:53:49.493Z,0.98
2023-04-01T00:56:22.008Z,0.73
2023-04-01T00:58:55.898Z,0.90
2023-04-01T01:01:25.452Z,0.80
2023-04-01T01:03:52.395Z,0.80
2023-04-01T01:06:47.704Z,0.80
2023-04-01T01:09:56.406Z,0.80
2023-04-01T01:12:53.051Z,0.65
2023-04-01T01:15:53.343Z,0.60
2023-04-01T01:19:03.867Z,0.60
2023-04-01T01:22:11.233Z,0.63
2023-04-01T01:25:02.010Z,0.73
2023-04-01T01:27:30.644Z,0.70
2023-04-01T01:30:40.192Z,1.10
2023-04-01T01:34:00.919Z,0.90
2023-04-01T01:36:35.714Z,1.05
2023-04-01T01:39:05.839Z,0.90
2023-04-01T01:41:33.299Z,0.70
2023-04-01T01:44:03.863Z,0.93
2023-04-01T01:46:32.246Z,0.90
2023-04-01T01:49:00.996Z,0.80
2023-04-01T01:51:28.996Z,0.93
2023-04-01T01:53:55.887Z,0.85
2023-04-01T01:56:28.098Z,1.10
2023-04-01T01:59:07.395Z,0.90
2023-04-01T02:01:38.927Z,0.90
2023-04-01T02:04:06.830Z,0.90
2023-04-01T02:06:39.510Z,1.08
2023-04-01T02:09:11.893Z,1.17
2023-04-01T02:11:46.521Z,1.33
2023-04-01T02:14:27.852Z,1.15
2023-04-01T02:17:13.038Z,1.23
2023-04-01T02:19:47.973Z,1.00
2023-04-01T02:22:22.222Z,1.10
2023-04-01T02:24:52.031Z,1.40
2023-04-01T02:27:19.262Z,1.38
2023-04-01T02:29:46.079Z,1.38
2023-04-01T02:32:15.523Z,1.42
2023-04-01T02:34:43.891Z,1.38
2023-04-01T02:37:13.221Z,1.40
2023-04-01T02:39:39.964Z,1.52
2023-04-01T02:42:07.023Z,1.08
2023-04-01T02:44:33.728Z,1.23
2023-04-01T02:47:00.603Z,1.35
2023-04-01T02:49:27.369Z,1.45
2023-04-01T02:51:54.257Z,1.45
2023-04-01T02:54:21.377Z,1.30
2023-04-01T02:56:48.242Z,1.52
2023-04-01T02:59:15.298Z,1.33
2023-04-01T03:01:42.000Z,1.13
2023-04-01T03:04:08.834Z,1.40
2023-04-01T03:06:35.606Z,1.05
2023-04-01T03:09:02.724Z,0.90
2023-04-01T03:11:29.427Z,0.90
2023-04-01T03:13:56.131Z,0.82
2023-04-01T03:16:23.079Z,0.85
2023-04-01T03:18:51.496Z,1.00
2023-04-01T03:21:23.991Z,1.20
2023-04-01T03:23:51.757Z,0.80
2023-04-01T03:26:19.027Z,1.02
2023-04-01T03:28:45.781Z,0.90
2023-04-01T03:31:12.782Z,0.80
2023-04-01T03:33:39.528Z,1.05
2023-04-01T03:36:07.345Z,0.80
2023-04-01T03:38:36.043Z,0.85
2023-04-01T03:41:03.188Z,0.88
2023-04-01T03:43:30.157Z,0.80
2023-04-01T03:45:58.878Z,0.80
2023-04-01T03:48:26.659Z,0.82
2023-04-01T03:50:53.376Z,0.60
2023-04-01T03:53:20.645Z,0.60
2023-04-01T03:55:47.717Z,0.70
2023-04-01T03:58:14.579Z,0.70
2023-04-01T04:23:01.601Z,1.23
2023-04-01T04:25:28.356Z,1.33
2023-04-01T04:27:55.061Z,1.90
2023-04-01T04:30:22.054Z,1.70
2023-04-01T04:32:48.819Z,1.60
2023-04-01T04:35:16.293Z,1.33
2023-04-01T04:37:43.020Z,1.50
2023-04-01T04:40:09.955Z,1.60
2023-04-01T04:42:36.680Z,1.50
2023-04-01T04:45:03.996Z,1.77
2023-04-01T04:47:30.910Z,1.63
2023-04-01T04:49:57.650Z,1.63
2023-04-01T04:52:24.412Z,1.70
2023-04-01T04:54:51.158Z,1.90
2023-04-01T04:57:17.885Z,1.98
2023-04-01T04:59:45.279Z,1.70
2023-04-01T05:02:12.468Z,1.95
2023-04-01T05:04:39.303Z,2.00
2023-04-01T05:07:06.037Z,1.90
2023-04-01T05:09:33.221Z,1.70
2023-04-01T05:11:59.944Z,1.90
2023-04-01T05:14:26.726Z,2.20
2023-04-01T05:16:55.220Z,2.70
2023-04-01T05:19:22.502Z,2.42
2023-04-01T05:21:49.255Z,2.92
2023-04-01T05:24:16.050Z,2.97
2023-04-01T05:26:42.796Z,2.63
2023-04-01T05:29:09.535Z,2.90
2023-04-01T05:31:36.278Z,3.10
2023-04-01T05:34:03.060Z,2.85
2023-04-01T05:36:29.822Z,2.90
2023-04-01T05:38:57.420Z,3.58
2023-04-01T05:41:24.175Z,3.45
2023-04-01T05:43:50.908Z,3.42
2023-04-01T05:46:17.806Z,3.00
2023-04-01T05:48:44.625Z,2.92
2023-04-01T05:51:16.180Z,3.10
2023-04-01T05:53:43.769Z,2.65
2023-04-01T05:56:10.917Z,2.63
2023-04-01T05:58:38.700Z,2.45
2023-04-01T06:01:11.563Z,2.65
2023-04-01T06:03:40.972Z,2.20
2023-04-01T06:06:16.778Z,2.65
2023-04-01T06:08:44.167Z,1.90
2023-04-01T06:11:41.987Z,2.40
2023-04-01T06:14:08.612Z,2.10
2023-04-01T06:16:53.474Z,2.30
2023-04-01T06:20:01.195Z,2.15
2023-04-01T06:22:52.191Z,2.78
2023-04-01T06:25:34.011Z,2.50
2023-04-01T06:28:36.372Z,2.25
2023-04-01T06:31:21.156Z,2.20
2023-04-01T06:34:21.223Z,2.00
2023-04-01T06:37:21.715Z,1.90
2023-04-01T06:40:19.198Z,2.20
2023-04-01T06:43:02.339Z,2.40
2023-04-01T06:45:47.351Z,2.05
2023-04-01T06:48:30.966Z,2.45
2023-04-01T06:51:29.967Z,2.65
2023-04-01T06:54:20.922Z,3.03
2023-04-01T06:56:53.750Z,2.95
2023-04-01T06:59:26.692Z,3.10
2023-04-01T07:01:59.343Z,3.45
2023-04-01T07:04:44.615Z,3.58
2023-04-01T07:07:20.166Z,3.10
2023-04-01T07:09:53.904Z,3.05
2023-04-01T07:12:37.102Z,3.47
2023-04-01T07:15:17.591Z,3.20
2023-04-01T07:17:46.690Z,2.80
2023-04-01T07:20:31.874Z,2.95
2023-04-01T07:23:05.913Z,3.33
2023-04-01T07:25:42.927Z,3.15
2023-04-01T07:28:17.678Z,4.18
2023-04-01T07:31:03.911Z,3.92
2023-04-01T07:34:10.538Z,4.90
2023-04-01T07:37:13.641Z,4.72
2023-04-01T07:40:11.017Z,4.90
2023-04-01T07:42:58.984Z,5.57
2023-04-01T07:45:53.532Z,5.60
2023-04-01T07:48:40.860Z,5.47
2023-04-01T07:51:32.566Z,5.97
2023-04-01T07:54:22.140Z,6.20
2023-04-01T07:57:00.776Z,6.63
2023-04-01T08:00:14.864Z,6.32
2023-04-01T08:03:10.213Z,6.80
2023-04-01T08:05:54.995Z,7.10
2023-04-01T08:08:51.919Z,8.93
2023-04-01T08:11:52.777Z,7.80
2023-04-01T08:15:12.872Z,8.68
2023-04-01T08:18:02.472Z,8.85
2023-04-01T08:20:53.939Z,8.85
2023-04-01T08:23:29.746Z,8.43
2023-04-01T08:26:12.025Z,8.48
2023-04-01T08:28:54.839Z,8.20
2023-04-01T08:31:43.947Z,7.88
2023-04-01T08:34:20.514Z,7.25
2023-04-01T08:37:05.756Z,7.55
2023-04-01T08:39:51.143Z,7.82
2023-04-01T08:42:47.645Z,8.13
2023-04-01T08:46:05.706Z,8.15
2023-04-01T08:49:06.335Z,8.85
2023-04-01T08:51:56.902Z,8.85
2023-04-01T08:54:32.666Z,9.02
2023-04-01T08:57:33.001Z,8.43
2023-04-01T09:00:33.742Z,8.48
2023-04-01T09:03:22.173Z,8.85
2023-04-01T09:06:13.387Z,8.07
2023-04-01T09:09:18.543Z,7.22
2023-04-01T09:12:22.713Z,7.22
2023-04-01T09:15:07.297Z,7.63
2023-04-01T09:18:21.180Z,7.57
2023-04-01T09:21:34.598Z,8.45
2023-04-01T09:24:41.241Z,9.10
2023-04-01T09:27:31.714Z,10.00
2023-04-01T09:30:44.021Z,11.20
2023-04-01T09:33:31.078Z,10.18
2023-04-01T09:36:31.084Z,10.20
2023-04-01T09:39:39.945Z,9.77
2023-04-01T09:42:46.830Z,9.68
2023-04-01T09:45:45.235Z,8.48
2023-04-01T09:48:30.331Z,8.43
2023-04-01T09:51:31.557Z,9.00
2023-04-01T09:54:09.682Z,8.43
2023-04-01T09:57:20.478Z,7.82
2023-04-01T10:00:33.226Z,7.95
2023-04-01T10:03:56.947Z,7.72
2023-04-01T10:07:06.824Z,8.90
2023-04-01T10:09:43.033Z,9.32
2023-04-01T10:12:35.525Z,9.40
2023-04-01T10:15:34.592Z,8.90
2023-04-01T10:18:52.142Z,8.55
2023-04-01T10:22:20.474Z,9.07
2023-04-01T10:25:18.609Z,8.95
2023-04-01T10:27:51.141Z,9.68
2023-04-01T10:31:07.096Z,9.57
2023-04-01T10:34:06.586Z,9.35
2023-04-01T10:36:49.071Z,8.23
2023-04-01T10:39:53.816Z,8.35
2023-04-01T10:43:14.334Z,10.68
2023-04-01T10:46:25.741Z,9.45
2023-04-01T10:49:34.809Z,9.00
2023-04-01T10:52:23.182Z,9.38
2023-04-01T10:55:40.275Z,10.57
2023-04-01T10:58:31.641Z,10.73
2023-04-01T11:02:00.688Z,11.27
2023-04-01T11:05:33.049Z,10.90
2023-04-01T11:08:11.847Z,10.90
2023-04-01T11:11:42.742Z,10.70
2023-04-01T11:14:47.576Z,10.52
2023-04-01T11:17:46.787Z,9.38
2023-04-01T11:20:23.889Z,10.30
2023-04-01T11:23:21.050Z,9.30
2023-04-01T11:25:56.552Z,9.70
2023-04-01T11:28:36.710Z,10.27
2023-04-01T11:31:31.308Z,8.63
2023-04-01T11:34:27.222Z,8.18
2023-04-01T11:37:24.240Z,9.45
2023-04-01T11:40:20.049Z,9.15
2023-04-01T11:42:58.233Z,7.30
2023-04-01T11:45:35.077Z,7.63
2023-04-01T11:48:16.066Z,5.60
2023-04-01T11:51:07.743Z,6.32
2023-04-01T11:54:06.947Z,6.63
2023-04-01T11:57:25.005Z,7.18
2023-04-01T12:00:38.614Z,6.68
2023-04-01T12:03:30.063Z,6.55
2023-04-01T12:06:22.821Z,6.32
2023-04-01T12:09:09.041Z,6.30
2023-04-01T12:12:13.285Z,6.68
2023-04-01T12:14:51.805Z,5.38
2023-04-01T12:17:39.832Z,4.68
2023-04-01T12:21:18.506Z,4.22
2023-04-01T12:24:09.827Z,4.57
2023-04-01T12:26:55.487Z,4.60
2023-04-01T12:29:44.121Z,4.40
2023-04-01T12:32:29.093Z,3.58
2023-04-01T12:35:22.992Z,4.03
2023-04-01T12:38:18.245Z,4.53
2023-04-01T12:41:19.708Z,3.75
2023-04-01T12:44:14.257Z,4.32
2023-04-01T12:47:09.430Z,4.10
2023-04-01T12:49:56.698Z,3.75
2023-04-01T12:52:52.056Z,4.65
2023-04-01T12:55:36.484Z,4.22
2023-04-01T12:58:31.406Z,3.45
2023-04-01T13:01:25.924Z,3.70
2023-04-01T13:04:21.633Z,3.80
2023-04-01T13:07:27.739Z,3.80
2023-04-01T13:10:21.782Z,3.22
2023-04-01T13:13:55.941Z,3.78
2023-04-01T13:16:30.929Z,3.05
2023-04-01T13:19:27.035Z,3.20
2023-04-01T13:22:27.377Z,3.22
2023-04-01T13:25:08.820Z,3.30
2023-04-01T13:27:42.130Z,3.35
2023-04-01T13:30:32.168Z,3.35
2023-04-01T13:33:20.691Z,3.25
2023-04-01T13:36:04.423Z,3.40
2023-04-01T13:38:59.662Z,3.25
2023-04-01T13:42:16.948Z,3.15
2023-04-01T13:44:55.702Z,2.97
2023-04-01T13:48:14.886Z,2.92
2023-04-01T13:51:32.071Z,2.78
2023-04-01T13:54:04.801Z,2.53
2023-04-01T13:56:43.440Z,3.10
2023-04-01T14:00:03.999Z,2.75
2023-04-01T14:02:47.352Z,2.90
2023-04-01T14:05:57.630Z,3.15
2023-04-01T14:09:02.323Z,3.10
2023-04-01T14:12:02.488Z,3.75
2023-04-01T14:14:55.483Z,3.58
2023-04-01T14:18:05.605Z,3.58
2023-04-01T14:21:04.426Z,4.55
2023-04-01T14:23:57.062Z,3.50
2023-04-01T14:26:36.011Z,3.50
2023-04-01T14:29:26.204Z,4.15
2023-04-01T14:32:17.171Z,4.47
2023-04-01T14:35:16.285Z,3.88
2023-04-01T14:38:20.779Z,4.10
2023-04-01T14:41:03.656Z,4.18
2023-04-01T14:43:54.643Z,4.00
2023-04-01T14:46:35.865Z,4.60
2023-04-01T14:49:32.785Z,4.13
2023-04-01T14:52:32.567Z,4.13
2023-04-01T14:54:59.991Z,3.80
2023-04-01T14:57:30.837Z,5.07
2023-04-01T15:00:05.119Z,5.72
2023-04-01T15:03:04.850Z,5.60
2023-04-01T15:05:40.463Z,7.00
2023-04-01T15:08:28.468Z,6.28
2023-04-01T15:11:12.771Z,6.53
2023-04-01T15:14:19.671Z,7.47
2023-04-01T15:17:11.670Z,8.80
2023-04-01T15:19:59.297Z,9.18
2023-04-01T15:23:12.173Z,8.23
2023-04-01T15:26:09.274Z,8.00
2023-04-01T15:29:16.086Z,8.02
2023-04-01T15:32:03.843Z,8.95
2023-04-01T15:34:47.010Z,8.68
2023-04-01T15:37:22.855Z,8.18
2023-04-01T15:40:04.582Z,8.23
2023-04-01T15:43:02.589Z,7.63
2023-04-01T15:46:03.085Z,7.68
2023-04-01T15:48:59.404Z,7.18
2023-04-01T15:51:48.771Z,6.88
2023-04-01T15:54:54.622Z,7.28
2023-04-01T15:57:53.235Z,7.88
2023-04-01T16:00:42.750Z,6.25
2023-04-01T16:03:21.700Z,6.50
2023-04-01T16:06:07.810Z,6.03
2023-04-01T16:08:59.622Z,6.70
2023-04-01T16:12:01.510Z,6.38
2023-04-01T16:14:40.263Z,5.30
2023-04-01T16:17:12.378Z,5.43
2023-04-01T16:19:51.890Z,5.47
2023-04-01T16:22:41.450Z,4.78
2023-04-01T16:25:48.375Z,4.30
2023-04-01T16:28:51.511Z,4.05
2023-04-01T16:31:37.918Z,3.40
2023-04-01T16:34:49.750Z,3.58
2023-04-01T16:37:22.844Z,4.17
2023-04-01T16:40:14.213Z,4.95
2023-04-01T16:43:16.327Z,4.07
2023-04-01T16:46:23.005Z,3.60
2023-04-01T16:49:25.661Z,3.70
2023-04-01T16:54:22.049Z,3.60
2023-04-01T16:56:57.552Z,3.45
2023-04-01T16:59:36.719Z,3.78
2023-04-01T17:02:09.728Z,4.03
2023-04-01T17:04:53.477Z,3.70
2023-04-01T17:07:58.134Z,3.47
2023-04-01T17:10:54.631Z,3.97
2023-04-01T17:13:49.407Z,3.42
2023-04-01T17:16:44.075Z,3.00
2023-04-01T17:19:32.514Z,2.70
2023-04-01T17:22:29.695Z,2.85
2023-04-01T17:25:11.402Z,2.20
2023-04-01T17:27:54.504Z,2.50
2023-04-01T17:34:47.780Z,2.00
2023-04-01T17:41:58.129Z,2.20
2023-04-01T17:49:11.294Z,4.90
2023-04-01T17:51:44.747Z,4.97
2023-04-01T17:54:29.552Z,4.40
2023-04-01T17:57:07.054Z,4.93
2023-04-01T17:59:40.354Z,4.40
2023-04-01T18:02:10.043Z,3.70
2023-04-01T18:05:05.451Z,3.90
2023-04-01T18:07:39.855Z,4.00
2023-04-01T18:10:29.907Z,3.95
2023-04-01T18:17:39.401Z,4.50
2023-04-01T18:20:25.964Z,5.32
2023-04-01T18:27:34.017Z,5.28
2023-04-01T18:30:19.495Z,5.88
2023-04-01T18:37:35.627Z,6.68
2023-04-01T18:44:32.040Z,6.07
2023-04-01T18:48:06.484Z,5.80
2023-04-01T18:50:52.714Z,5.63
2023-04-01T18:53:39.022Z,7.05
2023-04-01T18:56:24.239Z,8.05
2023-04-01T18:59:28.486Z,9.40
2023-04-01T19:02:41.407Z,8.45
2023-04-01T19:05:20.738Z,10.13
2023-04-01T19:07:49.980Z,11.07
2023-04-01T19:11:04.767Z,10.05
2023-04-01T19:14:28.063Z,12.57
2023-04-01T19:17:44.335Z,11.32
2023-04-01T19:20:19.999Z,11.30
2023-04-01T19:27:13.980Z,10.32
2023-04-01T19:29:57.696Z,12.15
2023-04-01T19:32:52.212Z,14.02
2023-04-01T19:39:50.401Z,13.65
2023-04-01T19:43:00.972Z,12.88
2023-04-01T19:46:03.705Z,13.60
2023-04-01T19:49:07.194Z,13.35
2023-04-01T19:52:15.626Z,12.82
2023-04-01T19:59:24.980Z,8.73
2023-04-01T20:02:12.073Z,7.07
2023-04-01T20:04:42.266Z,7.15
2023-04-01T20:07:39.462Z,6.25
2023-04-01T20:10:22.120Z,5.10
2023-04-01T20:12:57.933Z,4.47
2023-04-01T20:15:42.384Z,3.88
2023-04-01T20:22:38.216Z,4.30
2023-04-01T20:25:32.657Z,4.00
2023-04-01T20:28:20.836Z,4.03
2023-04-01T20:31:21.485Z,3.60
2023-04-01T20:34:37.127Z,3.22
2023-04-01T20:37:48.138Z,3.72
2023-04-01T20:40:48.540Z,4.35
2023-04-01T20:43:26.727Z,4.32
2023-04-01T20:46:19.686Z,4.13
2023-04-01T20:48:53.252Z,3.60
2023-04-01T20:51:27.255Z,2.97
2023-04-01T20:54:16.981Z,3.35
2023-04-01T20:57:21.755Z,2.97
2023-04-01T21:00:04.509Z,3.00
2023-04-01T21:03:03.139Z,2.53
2023-04-01T21:05:51.879Z,2.97
2023-04-01T21:08:58.521Z,2.88
2023-04-01T21:11:55.742Z,2.72
2023-04-01T21:18:56.221Z,3.15
2023-04-01T21:21:59.774Z,3.17
2023-04-01T21:29:11.356Z,3.15
2023-04-01T21:32:20.087Z,3.40
2023-04-01T21:35:18.184Z,3.80
2023-04-01T21:37:53.756Z,3.47
2023-04-01T21:44:57.657Z,3.60
2023-04-01T21:48:11.244Z,2.95
2023-04-01T21:50:52.816Z,2.55
2023-04-01T21:53:39.384Z,3.88
2023-04-01T21:56:43.901Z,3.40
2023-04-01T21:59:32.317Z,4.32
2023-04-01T22:02:43.688Z,4.68
2023-04-01T22:09:40.847Z,3.97
2023-04-01T22:12:44.951Z,4.47
2023-04-01T22:15:42.493Z,3.60
2023-04-01T22:18:15.654Z,3.85
2023-04-01T22:21:14.057Z,3.00
2023-04-01T22:24:01.729Z,4.10
2023-04-01T22:26:53.712Z,4.20
2023-04-01T22:29:27.948Z,2.88
2023-04-01T22:32:07.241Z,2.70
2023-04-01T22:34:56.758Z,4.18
2023-04-01T22:37:41.416Z,4.40
2023-04-01T22:40:45.886Z,3.90
2023-04-01T22:43:42.107Z,3.92
2023-04-01T22:46:24.783Z,3.50
2023-04-01T22:49:23.613Z,4.05
2023-04-01T22:52:31.745Z,3.78
2023-04-01T22:59:36.545Z,3.28
2023-04-01T23:02:23.288Z,3.13
2023-04-01T23:05:04.133Z,2.58
2023-04-01T23:08:17.967Z,3.10
2023-04-01T23:10:57.323Z,1.90
2023-04-01T23:13:33.163Z,2.67
2023-04-01T23:16:00.512Z,2.08
2023-04-01T23:19:12.177Z,2.83
2023-04-01T23:22:28.341Z,3.05
2023-04-01T23:25:21.975Z,4.35
2023-04-01T23:28:23.716Z,4.75
2023-04-01T23:30:52.059Z,3.93
2023-04-01T23:33:31.522Z,4.22
2023-04-01T23:36:06.865Z,6.05
2023-04-01T23:38:38.166Z,5.25
2023-04-01T23:41:07.309Z,5.07
2023-04-01T23:47:42.118Z,4.95
2023-04-01T23:54:24.319Z,5.57
2023-04-01T23:56:57.377Z,5.75
2023-04-01T23:59:33.557Z,5.65
